Alstead, NH

5:45 PM EST on March 03, 2015 (GMT -0500)
Ramsay Hill Road | Change Station
CLOSE
Current Station
Personal Weather Station
Location: Walpole, NH
Elevation: 950 ft
Nearby Weather Stations
Active Advisory: Winter Weather Advisory

Elev 950 ft 43.07 °N, 72.41 °W | Updated 5 minutes ago

Overcast
Overcast
22.2 °F
Feels Like 14 °F
N
7.0
Wind Variable Wind from SSW
Gusts 7.0 mph

Today
High -- | Low -- °F
--% Chance of Precip.
Yesterday
High -- | Low -- °F
Precip. -- in
6:22 AM 5:40 PM
Waxing Gibbous, 97% visible
Pressure 30.07 in
Visibility 5.0 miles
Clouds Scattered Clouds 2700 ft
Mostly Cloudy 3400 ft
Mostly Cloudy 4400 ft
Windchill 14 °F
Dew Point 14 °F
Humidity 71%
Rainfall 0.00 in
Snow Depth Not available.
UV 0 out of 12
Pollen .30 out of 12
Air Quality Not available.
Flu Activity Not available.
METAR KEEN 032235Z AUTO 19017G20KT 5SM SCT027 BKN034 BKN044 M03/M12 A3007 RMK AO1

More Conditions Fewer Conditions

Pressure 30.07 in
Visibility 5.0 miles
Clouds Scattered Clouds 2700 ft
Mostly Cloudy 3400 ft
Mostly Cloudy 4400 ft
Windchill 14 °F
Dew Point 14 °F
Humidity 71%
Rainfall 0.00 in
Snow Depth Not available.
UV 0 out of 12
Pollen .30 out of 12
Air Quality Not available.
Flu Activity Not available.
METAR KEEN 032235Z AUTO 19017G20KT 5SM SCT027 BKN034 BKN044 M03/M12 A3007 RMK AO1

More Conditions Fewer Conditions

10-Day Weather Forecast

Almanac

Astronomy

Mar. 03, 2015 Rise Set
Actual Time
Civil Twilight
Nautical Twilight
Astronomical Twilight
Moon
Length of Visible Light
Length of Day
Tomorrow will be .
, % of the Moon is Illuminated

Today's Extremes

State Highs State Lows

Community

WunderPhotos

Upload Photos

1,802,299 photos uploaded!

WunderBlogs® & News

Nearby

Air Quality

  Air Quality AQ Index Pollutant
Not available.

Snow Depth

Station Depth Elevation

Earthquake Activity

City Distance Mag. Time & Date
Minimum magnitude displayed is 2.5.

Coastal Water Temperatures

Place Temperature

Nearby Weather Stations

Winter Weather Advisory
Statement as of 3:06 PM EST on March 03, 2015

... Winter Weather Advisory remains in effect until 7 am EST
Wednesday...

* hazard types... snow and freezing rain.

* Accumulations... snow accumulation of 2 to 4 inches.

* Timing... snow begins late this afternoon and continues into the
pre-dawn hours before ending. Precipitation could briefly mix
with or change to sleet or freezing rain as it ends.

* Impacts... Road will become snow covered and slippery.

* Winds... south 5 to 10 mph with gusts up to 20 mph.

* Temperatures... around 30.

Precautionary/preparedness actions...

A Winter Weather Advisory means that periods of snow... sleet... or
freezing rain will cause travel difficulties. Be prepared for
slippery roads and limited visibilities... and use caution while
driving.